<?xml version="1.0" encoding="UTF-8"?>
<gpx xmlns="http://www.topografix.com/GPX/1/1" xmlns:xsi="http://www.w3.org/2001/XMLSchema-instance" version="1.1" xsi:schemaLocation="http://www.topografix.com/GPX/1/1 http://www.topografix.com/GPX/1/1/gpx.xsd">
  <metadata>
    <name>Stradbroke Triathlon</name>
  </metadata>
  <trk>
    <name>Stradbroke Triathlon</name>
    <trkseg>
      <trkpt lat="52.315764" lon="1.270667">
        <ele>56.463857</ele>
        <time>2024-05-19T11:03:12.000Z</time>
      </trkpt>
      <trkpt lat="52.315822" lon="1.271235">
        <ele>56.463843</ele>
        <time>2024-05-19T11:03:16.000Z</time>
      </trkpt>
      <trkpt lat="52.316072" lon="1.271317">
        <ele>56.463849</ele>
        <time>2024-05-19T11:03:19.000Z</time>
      </trkpt>
      <trkpt lat="52.316303" lon="1.271372">
        <ele>56.463849</ele>
        <time>2024-05-19T11:03:22.000Z</time>
      </trkpt>
      <trkpt lat="52.316363" lon="1.27137">
        <ele>56.463255</ele>
        <time>2024-05-19T11:03:23.000Z</time>
      </trkpt>
      <trkpt lat="52.316667" lon="1.271347">
        <ele>56.371784</ele>
        <time>2024-05-19T11:03:26.000Z</time>
      </trkpt>
      <trkpt lat="52.317094" lon="1.271247">
        <ele>56.234127</ele>
        <time>2024-05-19T11:03:31.000Z</time>
      </trkpt>
      <trkpt lat="52.317722" lon="1.2714">
        <ele>56.04242</ele>
        <time>2024-05-19T11:03:38.000Z</time>
      </trkpt>
      <trkpt lat="52.317537" lon="1.270084">
        <ele>55.654755</ele>
        <time>2024-05-19T11:03:47.000Z</time>
      </trkpt>
      <trkpt lat="52.317323" lon="1.268509">
        <ele>55.024859</ele>
        <time>2024-05-19T11:03:58.000Z</time>
      </trkpt>
      <trkpt lat="52.317166" lon="1.267619">
        <ele>54.689532</ele>
        <time>2024-05-19T11:04:04.000Z</time>
      </trkpt>
      <trkpt lat="52.316884" lon="1.266147">
        <ele>54.262888</ele>
        <time>2024-05-19T11:04:14.000Z</time>
      </trkpt>
      <trkpt lat="52.316859" lon="1.266073">
        <ele>54.241759</ele>
        <time>2024-05-19T11:04:15.000Z</time>
      </trkpt>
      <trkpt lat="52.316853" lon="1.266027">
        <ele>54.229144</ele>
        <time>2024-05-19T11:04:15.000Z</time>
      </trkpt>
      <trkpt lat="52.316757" lon="1.26566">
        <ele>54.121117</ele>
        <time>2024-05-19T11:04:18.000Z</time>
      </trkpt>
      <trkpt lat="52.316682" lon="1.265312">
        <ele>54.015208</ele>
        <time>2024-05-19T11:04:21.000Z</time>
      </trkpt>
      <trkpt lat="52.316104" lon="1.262361">
        <ele>53.171839</ele>
        <time>2024-05-19T11:04:42.000Z</time>
      </trkpt>
      <trkpt lat="52.316012" lon="1.262094">
        <ele>53.028559</ele>
        <time>2024-05-19T11:04:44.000Z</time>
      </trkpt>
      <trkpt lat="52.315876" lon="1.261887">
        <ele>52.837815</ele>
        <time>2024-05-19T11:04:46.000Z</time>
      </trkpt>
      <trkpt lat="52.315549" lon="1.261455">
        <ele>52.442185</ele>
        <time>2024-05-19T11:04:51.000Z</time>
      </trkpt>
      <trkpt lat="52.314813" lon="1.26075">
        <ele>51.604418</ele>
        <time>2024-05-19T11:05:00.000Z</time>
      </trkpt>
      <trkpt lat="52.314557" lon="1.260584">
        <ele>51.303427</ele>
        <time>2024-05-19T11:05:03.000Z</time>
      </trkpt>
      <trkpt lat="52.313514" lon="1.260725">
        <ele>49.675213</ele>
        <time>2024-05-19T11:05:15.000Z</time>
      </trkpt>
      <trkpt lat="52.31337" lon="1.260496">
        <ele>49.378848</ele>
        <time>2024-05-19T11:05:17.000Z</time>
      </trkpt>
      <trkpt lat="52.313208" lon="1.25853">
        <ele>46.523902</ele>
        <time>2024-05-19T11:05:30.000Z</time>
      </trkpt>
      <trkpt lat="52.312571" lon="1.255368">
        <ele>40.967276</ele>
        <time>2024-05-19T11:05:53.000Z</time>
      </trkpt>
      <trkpt lat="52.312403" lon="1.253396">
        <ele>38.662678</ele>
        <time>2024-05-19T11:06:07.000Z</time>
      </trkpt>
      <trkpt lat="52.312383" lon="1.253168">
        <ele>38.600083</ele>
        <time>2024-05-19T11:06:09.000Z</time>
      </trkpt>
      <trkpt lat="52.312322" lon="1.252953">
        <ele>38.52417</ele>
        <time>2024-05-19T11:06:11.000Z</time>
      </trkpt>
      <trkpt lat="52.312109" lon="1.252658">
        <ele>38.390048</ele>
        <time>2024-05-19T11:06:14.000Z</time>
      </trkpt>
      <trkpt lat="52.311756" lon="1.252497">
        <ele>38.212833</ele>
        <time>2024-05-19T11:06:18.000Z</time>
      </trkpt>
      <trkpt lat="52.310832" lon="1.252328">
        <ele>38.500325</ele>
        <time>2024-05-19T11:06:28.000Z</time>
      </trkpt>
      <trkpt lat="52.310248" lon="1.251927">
        <ele>39.257226</ele>
        <time>2024-05-19T11:06:35.000Z</time>
      </trkpt>
      <trkpt lat="52.309935" lon="1.251449">
        <ele>39.772552</ele>
        <time>2024-05-19T11:06:40.000Z</time>
      </trkpt>
      <trkpt lat="52.309682" lon="1.25087">
        <ele>40.446925</ele>
        <time>2024-05-19T11:06:45.000Z</time>
      </trkpt>
      <trkpt lat="52.309501" lon="1.250008">
        <ele>41.673676</ele>
        <time>2024-05-19T11:06:51.000Z</time>
      </trkpt>
      <trkpt lat="52.309186" lon="1.248655">
        <ele>43.636863</ele>
        <time>2024-05-19T11:07:01.000Z</time>
      </trkpt>
      <trkpt lat="52.308602" lon="1.246822">
        <ele>45.466612</ele>
        <time>2024-05-19T11:07:15.000Z</time>
      </trkpt>
      <trkpt lat="52.308489" lon="1.246645">
        <ele>45.679457</ele>
        <time>2024-05-19T11:07:17.000Z</time>
      </trkpt>
      <trkpt lat="52.308339" lon="1.246581">
        <ele>45.880155</ele>
        <time>2024-05-19T11:07:19.000Z</time>
      </trkpt>
      <trkpt lat="52.307837" lon="1.246625">
        <ele>46.5103</ele>
        <time>2024-05-19T11:07:25.000Z</time>
      </trkpt>
      <trkpt lat="52.307562" lon="1.24648">
        <ele>46.771972</ele>
        <time>2024-05-19T11:07:28.000Z</time>
      </trkpt>
      <trkpt lat="52.307218" lon="1.246129">
        <ele>47.120686</ele>
        <time>2024-05-19T11:07:33.000Z</time>
      </trkpt>
      <trkpt lat="52.305372" lon="1.242956">
        <ele>49.539031</ele>
        <time>2024-05-19T11:08:03.000Z</time>
      </trkpt>
      <trkpt lat="52.305246" lon="1.242741">
        <ele>49.667016</ele>
        <time>2024-05-19T11:08:05.000Z</time>
      </trkpt>
      <trkpt lat="52.305044" lon="1.242404">
        <ele>49.575157</ele>
        <time>2024-05-19T11:08:08.000Z</time>
      </trkpt>
      <trkpt lat="52.304795" lon="1.241943">
        <ele>49.453217</ele>
        <time>2024-05-19T11:08:12.000Z</time>
      </trkpt>
      <trkpt lat="52.30463" lon="1.24192">
        <ele>49.400589</ele>
        <time>2024-05-19T11:08:14.000Z</time>
      </trkpt>
      <trkpt lat="52.304604" lon="1.241966">
        <ele>49.385928</ele>
        <time>2024-05-19T11:08:14.000Z</time>
      </trkpt>
      <trkpt lat="52.30422" lon="1.242644">
        <ele>49.203556</ele>
        <time>2024-05-19T11:08:20.000Z</time>
      </trkpt>
      <trkpt lat="52.303766" lon="1.243529">
        <ele>49.320847</ele>
        <time>2024-05-19T11:08:28.000Z</time>
      </trkpt>
      <trkpt lat="52.303469" lon="1.244779">
        <ele>49.827339</ele>
        <time>2024-05-19T11:08:37.000Z</time>
      </trkpt>
      <trkpt lat="52.30328" lon="1.246145">
        <ele>50.66217</ele>
        <time>2024-05-19T11:08:47.000Z</time>
      </trkpt>
      <trkpt lat="52.303039" lon="1.246532">
        <ele>51.263354</ele>
        <time>2024-05-19T11:08:51.000Z</time>
      </trkpt>
      <trkpt lat="52.302444" lon="1.247033">
        <ele>52.478523</ele>
        <time>2024-05-19T11:08:58.000Z</time>
      </trkpt>
      <trkpt lat="52.301381" lon="1.247671">
        <ele>53.961287</ele>
        <time>2024-05-19T11:09:11.000Z</time>
      </trkpt>
      <trkpt lat="52.300529" lon="1.248172">
        <ele>54.701259</ele>
        <time>2024-05-19T11:09:21.000Z</time>
      </trkpt>
      <trkpt lat="52.300256" lon="1.248474">
        <ele>54.952811</ele>
        <time>2024-05-19T11:09:25.000Z</time>
      </trkpt>
      <trkpt lat="52.299955" lon="1.249257">
        <ele>54.916902</ele>
        <time>2024-05-19T11:09:31.000Z</time>
      </trkpt>
      <trkpt lat="52.299233" lon="1.250232">
        <ele>54.857356</ele>
        <time>2024-05-19T11:09:41.000Z</time>
      </trkpt>
      <trkpt lat="52.297111" lon="1.251591">
        <ele>55.028409</ele>
        <time>2024-05-19T11:10:06.000Z</time>
      </trkpt>
      <trkpt lat="52.296907" lon="1.251718">
        <ele>55.111406</ele>
        <time>2024-05-19T11:10:08.000Z</time>
      </trkpt>
      <trkpt lat="52.296494" lon="1.25198">
        <ele>55.285519</ele>
        <time>2024-05-19T11:10:13.000Z</time>
      </trkpt>
      <trkpt lat="52.296282" lon="1.25204">
        <ele>55.367894</ele>
        <time>2024-05-19T11:10:15.000Z</time>
      </trkpt>
      <trkpt lat="52.29622" lon="1.252063">
        <ele>55.39199</ele>
        <time>2024-05-19T11:10:16.000Z</time>
      </trkpt>
      <trkpt lat="52.294398" lon="1.252276">
        <ele>55.830683</ele>
        <time>2024-05-19T11:10:36.000Z</time>
      </trkpt>
      <trkpt lat="52.293704" lon="1.251939">
        <ele>55.871106</ele>
        <time>2024-05-19T11:10:44.000Z</time>
      </trkpt>
      <trkpt lat="52.292798" lon="1.251766">
        <ele>55.282266</ele>
        <time>2024-05-19T11:10:54.000Z</time>
      </trkpt>
      <trkpt lat="52.292155" lon="1.252033">
        <ele>54.85752</ele>
        <time>2024-05-19T11:11:01.000Z</time>
      </trkpt>
      <trkpt lat="52.291547" lon="1.25259">
        <ele>53.940126</ele>
        <time>2024-05-19T11:11:09.000Z</time>
      </trkpt>
      <trkpt lat="52.291352" lon="1.253044">
        <ele>53.4355</ele>
        <time>2024-05-19T11:11:13.000Z</time>
      </trkpt>
      <trkpt lat="52.291395" lon="1.253627">
        <ele>52.90499</ele>
        <time>2024-05-19T11:11:17.000Z</time>
      </trkpt>
      <trkpt lat="52.291994" lon="1.255824">
        <ele>50.697522</ele>
        <time>2024-05-19T11:11:33.000Z</time>
      </trkpt>
      <trkpt lat="52.292015" lon="1.255988">
        <ele>50.546286</ele>
        <time>2024-05-19T11:11:34.000Z</time>
      </trkpt>
      <trkpt lat="52.291856" lon="1.256409">
        <ele>50.081523</ele>
        <time>2024-05-19T11:11:37.000Z</time>
      </trkpt>
      <trkpt lat="52.291379" lon="1.257106">
        <ele>49.460458</ele>
        <time>2024-05-19T11:11:44.000Z</time>
      </trkpt>
      <trkpt lat="52.291008" lon="1.25749">
        <ele>49.604995</ele>
        <time>2024-05-19T11:11:49.000Z</time>
      </trkpt>
      <trkpt lat="52.290923" lon="1.257598">
        <ele>49.644812</ele>
        <time>2024-05-19T11:11:50.000Z</time>
      </trkpt>
      <trkpt lat="52.290022" lon="1.258962">
        <ele>50.243271</ele>
        <time>2024-05-19T11:12:04.000Z</time>
      </trkpt>
      <trkpt lat="52.289747" lon="1.259273">
        <ele>50.758686</ele>
        <time>2024-05-19T11:12:08.000Z</time>
      </trkpt>
      <trkpt lat="52.28939" lon="1.259416">
        <ele>51.327574</ele>
        <time>2024-05-19T11:12:12.000Z</time>
      </trkpt>
      <trkpt lat="52.289114" lon="1.259505">
        <ele>51.754859</ele>
        <time>2024-05-19T11:12:15.000Z</time>
      </trkpt>
      <trkpt lat="52.288042" lon="1.259934">
        <ele>53.239781</ele>
        <time>2024-05-19T11:12:27.000Z</time>
      </trkpt>
      <trkpt lat="52.286468" lon="1.260917">
        <ele>54.733126</ele>
        <time>2024-05-19T11:12:46.000Z</time>
      </trkpt>
      <trkpt lat="52.286019" lon="1.261238">
        <ele>54.844757</ele>
        <time>2024-05-19T11:12:51.000Z</time>
      </trkpt>
      <trkpt lat="52.285145" lon="1.261958">
        <ele>55.060536</ele>
        <time>2024-05-19T11:13:02.000Z</time>
      </trkpt>
      <trkpt lat="52.284162" lon="1.263313">
        <ele>54.451654</ele>
        <time>2024-05-19T11:13:16.000Z</time>
      </trkpt>
      <trkpt lat="52.283712" lon="1.263725">
        <ele>54.214229</ele>
        <time>2024-05-19T11:13:22.000Z</time>
      </trkpt>
      <trkpt lat="52.282719" lon="1.264252">
        <ele>54.158639</ele>
        <time>2024-05-19T11:13:34.000Z</time>
      </trkpt>
      <trkpt lat="52.282399" lon="1.264328">
        <ele>54.141962</ele>
        <time>2024-05-19T11:13:38.000Z</time>
      </trkpt>
      <trkpt lat="52.282356" lon="1.264342">
        <ele>54.139172</ele>
        <time>2024-05-19T11:13:38.000Z</time>
      </trkpt>
      <trkpt lat="52.282257" lon="1.264368">
        <ele>54.134662</ele>
        <time>2024-05-19T11:13:39.000Z</time>
      </trkpt>
      <trkpt lat="52.281859" lon="1.264483">
        <ele>54.062983</ele>
        <time>2024-05-19T11:13:43.000Z</time>
      </trkpt>
      <trkpt lat="52.280972" lon="1.264891">
        <ele>53.663287</ele>
        <time>2024-05-19T11:13:53.000Z</time>
      </trkpt>
      <trkpt lat="52.27992" lon="1.26565">
        <ele>52.89895</ele>
        <time>2024-05-19T11:14:06.000Z</time>
      </trkpt>
      <trkpt lat="52.279214" lon="1.266263">
        <ele>52.012811</ele>
        <time>2024-05-19T11:14:15.000Z</time>
      </trkpt>
      <trkpt lat="52.278711" lon="1.266507">
        <ele>51.434206</ele>
        <time>2024-05-19T11:14:21.000Z</time>
      </trkpt>
      <trkpt lat="52.277685" lon="1.266789">
        <ele>51.126356</ele>
        <time>2024-05-19T11:14:33.000Z</time>
      </trkpt>
      <trkpt lat="52.277153" lon="1.266883">
        <ele>51.006925</ele>
        <time>2024-05-19T11:14:39.000Z</time>
      </trkpt>
      <trkpt lat="52.276705" lon="1.26698">
        <ele>50.912734</ele>
        <time>2024-05-19T11:14:44.000Z</time>
      </trkpt>
      <trkpt lat="52.275713" lon="1.267101">
        <ele>50.749013</ele>
        <time>2024-05-19T11:14:55.000Z</time>
      </trkpt>
      <trkpt lat="52.274999" lon="1.267108">
        <ele>50.664604</ele>
        <time>2024-05-19T11:15:03.000Z</time>
      </trkpt>
      <trkpt lat="52.274525" lon="1.267491">
        <ele>50.838509</ele>
        <time>2024-05-19T11:15:09.000Z</time>
      </trkpt>
      <trkpt lat="52.274076" lon="1.268022">
        <ele>51.026301</ele>
        <time>2024-05-19T11:15:15.000Z</time>
      </trkpt>
      <trkpt lat="52.272923" lon="1.268722">
        <ele>52.3446</ele>
        <time>2024-05-19T11:15:29.000Z</time>
      </trkpt>
      <trkpt lat="52.272293" lon="1.269028">
        <ele>53.584723</ele>
        <time>2024-05-19T11:15:36.000Z</time>
      </trkpt>
      <trkpt lat="52.271697" lon="1.269299">
        <ele>54.73688</ele>
        <time>2024-05-19T11:15:43.000Z</time>
      </trkpt>
      <trkpt lat="52.270131" lon="1.270371">
        <ele>57.060096</ele>
        <time>2024-05-19T11:16:02.000Z</time>
      </trkpt>
      <trkpt lat="52.270374" lon="1.271151">
        <ele>56.467217</ele>
        <time>2024-05-19T11:16:08.000Z</time>
      </trkpt>
      <trkpt lat="52.271031" lon="1.271873">
        <ele>55.361676</ele>
        <time>2024-05-19T11:16:17.000Z</time>
      </trkpt>
      <trkpt lat="52.27114" lon="1.27203">
        <ele>55.169666</ele>
        <time>2024-05-19T11:16:19.000Z</time>
      </trkpt>
      <trkpt lat="52.271214" lon="1.272437">
        <ele>54.817656</ele>
        <time>2024-05-19T11:16:22.000Z</time>
      </trkpt>
      <trkpt lat="52.271332" lon="1.273471">
        <ele>53.707961</ele>
        <time>2024-05-19T11:16:29.000Z</time>
      </trkpt>
      <trkpt lat="52.27127" lon="1.274442">
        <ele>52.606427</ele>
        <time>2024-05-19T11:16:36.000Z</time>
      </trkpt>
      <trkpt lat="52.271185" lon="1.275754">
        <ele>51.430849</ele>
        <time>2024-05-19T11:16:45.000Z</time>
      </trkpt>
      <trkpt lat="52.271103" lon="1.276863">
        <ele>51.699695</ele>
        <time>2024-05-19T11:16:53.000Z</time>
      </trkpt>
      <trkpt lat="52.271054" lon="1.277177">
        <ele>51.78096</ele>
        <time>2024-05-19T11:16:55.000Z</time>
      </trkpt>
      <trkpt lat="52.270422" lon="1.278947">
        <ele>52.687822</ele>
        <time>2024-05-19T11:17:09.000Z</time>
      </trkpt>
      <trkpt lat="52.270212" lon="1.28001">
        <ele>53.564043</ele>
        <time>2024-05-19T11:17:17.000Z</time>
      </trkpt>
      <trkpt lat="52.270032" lon="1.280471">
        <ele>53.996955</ele>
        <time>2024-05-19T11:17:21.000Z</time>
      </trkpt>
      <trkpt lat="52.269869" lon="1.280629">
        <ele>54.257459</ele>
        <time>2024-05-19T11:17:23.000Z</time>
      </trkpt>
      <trkpt lat="52.26945" lon="1.280744">
        <ele>54.828993</ele>
        <time>2024-05-19T11:17:28.000Z</time>
      </trkpt>
      <trkpt lat="52.269063" lon="1.281004">
        <ele>55.45315</ele>
        <time>2024-05-19T11:17:33.000Z</time>
      </trkpt>
      <trkpt lat="52.268315" lon="1.28171">
        <ele>56.680133</ele>
        <time>2024-05-19T11:17:43.000Z</time>
      </trkpt>
      <trkpt lat="52.267977" lon="1.282222">
        <ele>57.149048</ele>
        <time>2024-05-19T11:17:48.000Z</time>
      </trkpt>
      <trkpt lat="52.267609" lon="1.283048">
        <ele>57.551724</ele>
        <time>2024-05-19T11:17:55.000Z</time>
      </trkpt>
      <trkpt lat="52.266569" lon="1.284457">
        <ele>58.2127</ele>
        <time>2024-05-19T11:18:10.000Z</time>
      </trkpt>
      <trkpt lat="52.266275" lon="1.28493">
        <ele>58.283372</ele>
        <time>2024-05-19T11:18:15.000Z</time>
      </trkpt>
      <trkpt lat="52.266111" lon="1.285108">
        <ele>58.3156</ele>
        <time>2024-05-19T11:18:17.000Z</time>
      </trkpt>
      <trkpt lat="52.265515" lon="1.285464">
        <ele>58.426102</ele>
        <time>2024-05-19T11:18:24.000Z</time>
      </trkpt>
      <trkpt lat="52.26523" lon="1.285746">
        <ele>58.570539</ele>
        <time>2024-05-19T11:18:28.000Z</time>
      </trkpt>
      <trkpt lat="52.26485" lon="1.286285">
        <ele>58.864205</ele>
        <time>2024-05-19T11:18:34.000Z</time>
      </trkpt>
      <trkpt lat="52.264775" lon="1.286462">
        <ele>58.940512</ele>
        <time>2024-05-19T11:18:35.000Z</time>
      </trkpt>
      <trkpt lat="52.264762" lon="1.28669">
        <ele>59.019306</ele>
        <time>2024-05-19T11:18:37.000Z</time>
      </trkpt>
      <trkpt lat="52.265008" lon="1.289338">
        <ele>60.121293</ele>
        <time>2024-05-19T11:18:55.000Z</time>
      </trkpt>
      <trkpt lat="52.265072" lon="1.289928">
        <ele>60.402509</ele>
        <time>2024-05-19T11:18:59.000Z</time>
      </trkpt>
      <trkpt lat="52.265066" lon="1.292358">
        <ele>61.143763</ele>
        <time>2024-05-19T11:19:16.000Z</time>
      </trkpt>
      <trkpt lat="52.265185" lon="1.293656">
        <ele>61.399884</ele>
        <time>2024-05-19T11:19:25.000Z</time>
      </trkpt>
      <trkpt lat="52.265165" lon="1.29386">
        <ele>61.438104</ele>
        <time>2024-05-19T11:19:26.000Z</time>
      </trkpt>
      <trkpt lat="52.265211" lon="1.294007">
        <ele>61.419206</ele>
        <time>2024-05-19T11:19:27.000Z</time>
      </trkpt>
      <trkpt lat="52.265213" lon="1.296128">
        <ele>61.173356</ele>
        <time>2024-05-19T11:19:41.000Z</time>
      </trkpt>
      <trkpt lat="52.265297" lon="1.296197">
        <ele>61.155087</ele>
        <time>2024-05-19T11:19:42.000Z</time>
      </trkpt>
      <trkpt lat="52.265837" lon="1.29625">
        <ele>61.06768</ele>
        <time>2024-05-19T11:19:48.000Z</time>
      </trkpt>
      <trkpt lat="52.270281" lon="1.296314">
        <ele>60.853126</ele>
        <time>2024-05-19T11:20:37.000Z</time>
      </trkpt>
      <trkpt lat="52.271569" lon="1.296335">
        <ele>61.308841</ele>
        <time>2024-05-19T11:20:51.000Z</time>
      </trkpt>
      <trkpt lat="52.272578" lon="1.296367">
        <ele>61.844677</ele>
        <time>2024-05-19T11:21:02.000Z</time>
      </trkpt>
      <trkpt lat="52.273289" lon="1.296399">
        <ele>61.92832</ele>
        <time>2024-05-19T11:21:10.000Z</time>
      </trkpt>
      <trkpt lat="52.273554" lon="1.296495">
        <ele>61.909221</ele>
        <time>2024-05-19T11:21:13.000Z</time>
      </trkpt>
      <trkpt lat="52.273747" lon="1.296773">
        <ele>61.8896</ele>
        <time>2024-05-19T11:21:16.000Z</time>
      </trkpt>
      <trkpt lat="52.273991" lon="1.297564">
        <ele>61.849952</ele>
        <time>2024-05-19T11:21:22.000Z</time>
      </trkpt>
      <trkpt lat="52.274586" lon="1.299228">
        <ele>61.724157</ele>
        <time>2024-05-19T11:21:35.000Z</time>
      </trkpt>
      <trkpt lat="52.274859" lon="1.299705">
        <ele>61.677837</ele>
        <time>2024-05-19T11:21:39.000Z</time>
      </trkpt>
      <trkpt lat="52.274963" lon="1.299797">
        <ele>61.664712</ele>
        <time>2024-05-19T11:21:40.000Z</time>
      </trkpt>
      <trkpt lat="52.276576" lon="1.300189">
        <ele>61.692911</ele>
        <time>2024-05-19T11:21:58.000Z</time>
      </trkpt>
      <trkpt lat="52.277088" lon="1.300462">
        <ele>61.714307</ele>
        <time>2024-05-19T11:22:04.000Z</time>
      </trkpt>
      <trkpt lat="52.279392" lon="1.302106">
        <ele>61.436289</ele>
        <time>2024-05-19T11:22:32.000Z</time>
      </trkpt>
      <trkpt lat="52.280075" lon="1.302484">
        <ele>61.422339</ele>
        <time>2024-05-19T11:22:40.000Z</time>
      </trkpt>
      <trkpt lat="52.281467" lon="1.303177">
        <ele>61.807023</ele>
        <time>2024-05-19T11:22:56.000Z</time>
      </trkpt>
      <trkpt lat="52.283508" lon="1.305225">
        <ele>62.764601</ele>
        <time>2024-05-19T11:23:23.000Z</time>
      </trkpt>
      <trkpt lat="52.283984" lon="1.304585">
        <ele>62.740947</ele>
        <time>2024-05-19T11:23:30.000Z</time>
      </trkpt>
      <trkpt lat="52.284852" lon="1.303">
        <ele>62.599361</ele>
        <time>2024-05-19T11:23:44.000Z</time>
      </trkpt>
      <trkpt lat="52.285757" lon="1.301542">
        <ele>62.327246</ele>
        <time>2024-05-19T11:23:58.000Z</time>
      </trkpt>
      <trkpt lat="52.28593" lon="1.301301">
        <ele>62.279263</ele>
        <time>2024-05-19T11:24:01.000Z</time>
      </trkpt>
      <trkpt lat="52.286416" lon="1.300643">
        <ele>62.159004</ele>
        <time>2024-05-19T11:24:08.000Z</time>
      </trkpt>
      <trkpt lat="52.287076" lon="1.299653">
        <ele>62.003456</ele>
        <time>2024-05-19T11:24:18.000Z</time>
      </trkpt>
      <trkpt lat="52.287586" lon="1.298732">
        <ele>61.852544</ele>
        <time>2024-05-19T11:24:26.000Z</time>
      </trkpt>
      <trkpt lat="52.287764" lon="1.298298">
        <ele>61.772384</ele>
        <time>2024-05-19T11:24:30.000Z</time>
      </trkpt>
      <trkpt lat="52.288268" lon="1.297613">
        <ele>61.609154</ele>
        <time>2024-05-19T11:24:37.000Z</time>
      </trkpt>
      <trkpt lat="52.289797" lon="1.296588">
        <ele>61.371746</ele>
        <time>2024-05-19T11:24:55.000Z</time>
      </trkpt>
      <trkpt lat="52.290047" lon="1.296398">
        <ele>61.350443</ele>
        <time>2024-05-19T11:24:58.000Z</time>
      </trkpt>
      <trkpt lat="52.291291" lon="1.295282">
        <ele>61.502437</ele>
        <time>2024-05-19T11:25:14.000Z</time>
      </trkpt>
      <trkpt lat="52.291544" lon="1.295292">
        <ele>61.556698</ele>
        <time>2024-05-19T11:25:17.000Z</time>
      </trkpt>
      <trkpt lat="52.291883" lon="1.295532">
        <ele>61.631048</ele>
        <time>2024-05-19T11:25:21.000Z</time>
      </trkpt>
      <trkpt lat="52.292552" lon="1.295879">
        <ele>61.680574</ele>
        <time>2024-05-19T11:25:29.000Z</time>
      </trkpt>
      <trkpt lat="52.292933" lon="1.29592">
        <ele>61.684534</ele>
        <time>2024-05-19T11:25:33.000Z</time>
      </trkpt>
      <trkpt lat="52.293287" lon="1.295806">
        <ele>61.688289</ele>
        <time>2024-05-19T11:25:37.000Z</time>
      </trkpt>
      <trkpt lat="52.293668" lon="1.295535">
        <ele>61.692464</ele>
        <time>2024-05-19T11:25:42.000Z</time>
      </trkpt>
      <trkpt lat="52.294031" lon="1.295092">
        <ele>61.56739</ele>
        <time>2024-05-19T11:25:47.000Z</time>
      </trkpt>
      <trkpt lat="52.294698" lon="1.293771">
        <ele>61.113997</ele>
        <time>2024-05-19T11:25:59.000Z</time>
      </trkpt>
      <trkpt lat="52.295021" lon="1.292995">
        <ele>60.899088</ele>
        <time>2024-05-19T11:26:05.000Z</time>
      </trkpt>
      <trkpt lat="52.295341" lon="1.292356">
        <ele>60.838837</ele>
        <time>2024-05-19T11:26:11.000Z</time>
      </trkpt>
      <trkpt lat="52.295551" lon="1.292112">
        <ele>60.808652</ele>
        <time>2024-05-19T11:26:14.000Z</time>
      </trkpt>
      <trkpt lat="52.296151" lon="1.291678">
        <ele>60.72994</ele>
        <time>2024-05-19T11:26:21.000Z</time>
      </trkpt>
      <trkpt lat="52.296475" lon="1.29149">
        <ele>60.689675</ele>
        <time>2024-05-19T11:26:25.000Z</time>
      </trkpt>
      <trkpt lat="52.296516" lon="1.291457">
        <ele>60.683326</ele>
        <time>2024-05-19T11:26:26.000Z</time>
      </trkpt>
      <trkpt lat="52.297277" lon="1.290969">
        <ele>60.578569</ele>
        <time>2024-05-19T11:26:35.000Z</time>
      </trkpt>
      <trkpt lat="52.297744" lon="1.290661">
        <ele>60.512048</ele>
        <time>2024-05-19T11:26:41.000Z</time>
      </trkpt>
      <trkpt lat="52.298598" lon="1.290149">
        <ele>60.064736</ele>
        <time>2024-05-19T11:26:51.000Z</time>
      </trkpt>
      <trkpt lat="52.298671" lon="1.289915">
        <ele>59.946106</ele>
        <time>2024-05-19T11:26:53.000Z</time>
      </trkpt>
      <trkpt lat="52.298442" lon="1.28905">
        <ele>59.517536</ele>
        <time>2024-05-19T11:26:59.000Z</time>
      </trkpt>
      <trkpt lat="52.298491" lon="1.288873">
        <ele>59.42675</ele>
        <time>2024-05-19T11:27:00.000Z</time>
      </trkpt>
      <trkpt lat="52.298606" lon="1.288728">
        <ele>59.325064</ele>
        <time>2024-05-19T11:27:02.000Z</time>
      </trkpt>
      <trkpt lat="52.299693" lon="1.287815">
        <ele>58.60466</ele>
        <time>2024-05-19T11:27:16.000Z</time>
      </trkpt>
      <trkpt lat="52.299898" lon="1.287635">
        <ele>58.470413</ele>
        <time>2024-05-19T11:27:19.000Z</time>
      </trkpt>
      <trkpt lat="52.300028" lon="1.287536">
        <ele>58.397649</ele>
        <time>2024-05-19T11:27:21.000Z</time>
      </trkpt>
      <trkpt lat="52.300358" lon="1.287253">
        <ele>58.191087</ele>
        <time>2024-05-19T11:27:25.000Z</time>
      </trkpt>
      <trkpt lat="52.30048" lon="1.287158">
        <ele>58.113378</ele>
        <time>2024-05-19T11:27:27.000Z</time>
      </trkpt>
      <trkpt lat="52.300555" lon="1.287062">
        <ele>58.041115</ele>
        <time>2024-05-19T11:27:28.000Z</time>
      </trkpt>
      <trkpt lat="52.300621" lon="1.286838">
        <ele>57.93444</ele>
        <time>2024-05-19T11:27:30.000Z</time>
      </trkpt>
      <trkpt lat="52.300591" lon="1.286154">
        <ele>57.65298</ele>
        <time>2024-05-19T11:27:35.000Z</time>
      </trkpt>
      <trkpt lat="52.30055" lon="1.285722">
        <ele>57.467786</ele>
        <time>2024-05-19T11:27:38.000Z</time>
      </trkpt>
      <trkpt lat="52.300555" lon="1.285486">
        <ele>57.367897</ele>
        <time>2024-05-19T11:27:40.000Z</time>
      </trkpt>
      <trkpt lat="52.300611" lon="1.285099">
        <ele>57.19989</ele>
        <time>2024-05-19T11:27:43.000Z</time>
      </trkpt>
      <trkpt lat="52.30071" lon="1.285014">
        <ele>57.122434</ele>
        <time>2024-05-19T11:27:44.000Z</time>
      </trkpt>
      <trkpt lat="52.301224" lon="1.284739">
        <ele>56.90735</ele>
        <time>2024-05-19T11:27:50.000Z</time>
      </trkpt>
      <trkpt lat="52.301235" lon="1.284735">
        <ele>56.907347</ele>
        <time>2024-05-19T11:27:50.000Z</time>
      </trkpt>
      <trkpt lat="52.301694" lon="1.284461">
        <ele>56.907372</ele>
        <time>2024-05-19T11:27:55.000Z</time>
      </trkpt>
      <trkpt lat="52.303961" lon="1.283282">
        <ele>57.523347</ele>
        <time>2024-05-19T11:28:21.000Z</time>
      </trkpt>
      <trkpt lat="52.304425" lon="1.282841">
        <ele>57.776111</ele>
        <time>2024-05-19T11:28:27.000Z</time>
      </trkpt>
      <trkpt lat="52.304599" lon="1.28253">
        <ele>57.897577</ele>
        <time>2024-05-19T11:28:30.000Z</time>
      </trkpt>
      <trkpt lat="52.305353" lon="1.280256">
        <ele>58.569701</ele>
        <time>2024-05-19T11:28:48.000Z</time>
      </trkpt>
      <trkpt lat="52.30576" lon="1.279593">
        <ele>58.507413</ele>
        <time>2024-05-19T11:28:54.000Z</time>
      </trkpt>
      <trkpt lat="52.306872" lon="1.278436">
        <ele>58.366524</ele>
        <time>2024-05-19T11:29:09.000Z</time>
      </trkpt>
      <trkpt lat="52.307859" lon="1.277127">
        <ele>58.224581</ele>
        <time>2024-05-19T11:29:23.000Z</time>
      </trkpt>
      <trkpt lat="52.308355" lon="1.276328">
        <ele>58.236648</ele>
        <time>2024-05-19T11:29:31.000Z</time>
      </trkpt>
      <trkpt lat="52.308404" lon="1.276253">
        <ele>58.245173</ele>
        <time>2024-05-19T11:29:32.000Z</time>
      </trkpt>
      <trkpt lat="52.308574" lon="1.275871">
        <ele>58.288533</ele>
        <time>2024-05-19T11:29:35.000Z</time>
      </trkpt>
      <trkpt lat="52.308645" lon="1.275542">
        <ele>58.319488</ele>
        <time>2024-05-19T11:29:37.000Z</time>
      </trkpt>
      <trkpt lat="52.308641" lon="1.27517">
        <ele>58.352625</ele>
        <time>2024-05-19T11:29:40.000Z</time>
      </trkpt>
      <trkpt lat="52.308612" lon="1.274957">
        <ele>58.373191</ele>
        <time>2024-05-19T11:29:41.000Z</time>
      </trkpt>
      <trkpt lat="52.308379" lon="1.273684">
        <ele>58.367876</ele>
        <time>2024-05-19T11:29:50.000Z</time>
      </trkpt>
      <trkpt lat="52.308357" lon="1.273559">
        <ele>58.348342</ele>
        <time>2024-05-19T11:29:51.000Z</time>
      </trkpt>
      <trkpt lat="52.308165" lon="1.272602">
        <ele>58.174078</ele>
        <time>2024-05-19T11:29:58.000Z</time>
      </trkpt>
      <trkpt lat="52.308106" lon="1.272217">
        <ele>58.105296</ele>
        <time>2024-05-19T11:30:01.000Z</time>
      </trkpt>
      <trkpt lat="52.308051" lon="1.271611">
        <ele>58.000954</ele>
        <time>2024-05-19T11:30:05.000Z</time>
      </trkpt>
      <trkpt lat="52.308099" lon="1.271474">
        <ele>57.973661</ele>
        <time>2024-05-19T11:30:06.000Z</time>
      </trkpt>
      <trkpt lat="52.30824" lon="1.271226">
        <ele>57.863786</ele>
        <time>2024-05-19T11:30:08.000Z</time>
      </trkpt>
      <trkpt lat="52.308841" lon="1.270797">
        <ele>57.323204</ele>
        <time>2024-05-19T11:30:15.000Z</time>
      </trkpt>
      <trkpt lat="52.30947" lon="1.270593">
        <ele>56.792849</ele>
        <time>2024-05-19T11:30:22.000Z</time>
      </trkpt>
      <trkpt lat="52.309715" lon="1.270555">
        <ele>56.586323</ele>
        <time>2024-05-19T11:30:25.000Z</time>
      </trkpt>
      <trkpt lat="52.311457" lon="1.269358">
        <ele>55.762214</ele>
        <time>2024-05-19T11:30:46.000Z</time>
      </trkpt>
      <trkpt lat="52.312061" lon="1.269048">
        <ele>55.78856</ele>
        <time>2024-05-19T11:30:53.000Z</time>
      </trkpt>
      <trkpt lat="52.312261" lon="1.269045">
        <ele>55.806947</ele>
        <time>2024-05-19T11:30:55.000Z</time>
      </trkpt>
      <trkpt lat="52.31242" lon="1.269112">
        <ele>55.822342</ele>
        <time>2024-05-19T11:30:57.000Z</time>
      </trkpt>
      <trkpt lat="52.312556" lon="1.269262">
        <ele>55.837713</ele>
        <time>2024-05-19T11:30:59.000Z</time>
      </trkpt>
      <trkpt lat="52.313002" lon="1.270287">
        <ele>55.918771</ele>
        <time>2024-05-19T11:31:08.000Z</time>
      </trkpt>
      <trkpt lat="52.313457" lon="1.270523">
        <ele>56.029334</ele>
        <time>2024-05-19T11:31:13.000Z</time>
      </trkpt>
      <trkpt lat="52.314202" lon="1.271259">
        <ele>56.237938</ele>
        <time>2024-05-19T11:31:23.000Z</time>
      </trkpt>
      <trkpt lat="52.314356" lon="1.271347">
        <ele>56.275812</ele>
        <time>2024-05-19T11:31:25.000Z</time>
      </trkpt>
      <trkpt lat="52.314532" lon="1.271379">
        <ele>56.318379</ele>
        <time>2024-05-19T11:31:27.000Z</time>
      </trkpt>
      <trkpt lat="52.314803" lon="1.271357">
        <ele>56.3494962845</ele>
        <time>2024-05-19T11:31:30.000Z</time>
      </trkpt>
      <trkpt lat="52.315129" lon="1.271272">
        <ele>56.3873548208</ele>
        <time>2024-05-19T11:31:34.000Z</time>
      </trkpt>
      <trkpt lat="52.315401" lon="1.271197">
        <ele>56.4189885882</ele>
        <time>2024-05-19T11:31:37.000Z</time>
      </trkpt>
      <trkpt lat="52.315813" lon="1.271248">
        <ele>56.4663729846</ele>
        <time>2024-05-19T11:31:42.000Z</time>
      </trkpt>
      <trkpt lat="52.315754" lon="1.270675">
        <ele>56.5071099414</ele>
        <time>2024-05-19T11:31:46.000Z</time>
      </trkpt>
    </trkseg>
  </trk>
</gpx>

<!--
Performance optimized by W3 Total Cache. Learn more: https://www.boldgrid.com/w3-total-cache/?utm_source=w3tc&utm_medium=footer_comment&utm_campaign=free_plugin

Page Caching using Disk: Enhanced{w3tc_pagecache_reject_reason} 

Served from: www.aquabike.world @ 2026-05-10 18:49:32 by W3 Total Cache
-->